sensor_id;sensor_type;location;lat;lon;timestamp;P1;durP1;ratioP1;P2;durP2;ratioP2
37641;SDS011;23486;51.956;5.888;2023-05-07T00:00:21;5.85;;;4.20;;
37641;SDS011;23486;51.956;5.888;2023-05-07T00:02:46;5.93;;;3.85;;
37641;SDS011;23486;51.956;5.888;2023-05-07T00:05:12;5.03;;;3.30;;
37641;SDS011;23486;51.956;5.888;2023-05-07T00:07:38;7.80;;;4.13;;
37641;SDS011;23486;51.956;5.888;2023-05-07T00:10:04;8.20;;;4.32;;
37641;SDS011;23486;51.956;5.888;2023-05-07T00:12:31;4.68;;;3.70;;
37641;SDS011;23486;51.956;5.888;2023-05-07T00:14:59;6.30;;;4.75;;
37641;SDS011;23486;51.956;5.888;2023-05-07T00:17:25;5.50;;;4.63;;
37641;SDS011;23486;51.956;5.888;2023-05-07T00:19:51;5.78;;;3.90;;
37641;SDS011;23486;51.956;5.888;2023-05-07T00:22:16;7.95;;;4.60;;
37641;SDS011;23486;51.956;5.888;2023-05-07T00:24:42;6.97;;;5.07;;
37641;SDS011;23486;51.956;5.888;2023-05-07T00:27:08;5.82;;;4.15;;
37641;SDS011;23486;51.956;5.888;2023-05-07T00:29:33;5.75;;;4.57;;
37641;SDS011;23486;51.956;5.888;2023-05-07T00:31:59;4.72;;;3.97;;
37641;SDS011;23486;51.956;5.888;2023-05-07T00:34:25;6.68;;;4.97;;
37641;SDS011;23486;51.956;5.888;2023-05-07T00:36:50;6.72;;;4.57;;
37641;SDS011;23486;51.956;5.888;2023-05-07T00:39:16;6.65;;;4.47;;
37641;SDS011;23486;51.956;5.888;2023-05-07T00:41:41;5.40;;;4.43;;
37641;SDS011;23486;51.956;5.888;2023-05-07T00:44:07;8.75;;;5.50;;
37641;SDS011;23486;51.956;5.888;2023-05-07T00:46:33;7.05;;;5.28;;
37641;SDS011;23486;51.956;5.888;2023-05-07T00:48:59;7.75;;;5.38;;
37641;SDS011;23486;51.956;5.888;2023-05-07T00:51:25;9.50;;;5.55;;
37641;SDS011;23486;51.956;5.888;2023-05-07T00:53:52;6.10;;;5.15;;
37641;SDS011;23486;51.956;5.888;2023-05-07T00:56:19;7.22;;;5.22;;
37641;SDS011;23486;51.956;5.888;2023-05-07T00:58:48;7.85;;;4.90;;
37641;SDS011;23486;51.956;5.888;2023-05-07T01:01:14;7.97;;;4.75;;
37641;SDS011;23486;51.956;5.888;2023-05-07T01:03:42;6.82;;;5.32;;
37641;SDS011;23486;51.956;5.888;2023-05-07T01:06:08;8.07;;;5.80;;
37641;SDS011;23486;51.956;5.888;2023-05-07T01:08:37;7.03;;;5.78;;
37641;SDS011;23486;51.956;5.888;2023-05-07T01:11:04;7.78;;;5.85;;
37641;SDS011;23486;51.956;5.888;2023-05-07T01:13:31;6.60;;;5.15;;
37641;SDS011;23486;51.956;5.888;2023-05-07T01:15:58;10.38;;;6.20;;
37641;SDS011;23486;51.956;5.888;2023-05-07T01:18:24;8.10;;;6.43;;
37641;SDS011;23486;51.956;5.888;2023-05-07T01:20:51;8.05;;;6.90;;
37641;SDS011;23486;51.956;5.888;2023-05-07T01:23:17;8.15;;;6.05;;
37641;SDS011;23486;51.956;5.888;2023-05-07T01:25:44;11.45;;;7.68;;
37641;SDS011;23486;51.956;5.888;2023-05-07T01:28:16;9.13;;;7.85;;
37641;SDS011;23486;51.956;5.888;2023-05-07T01:30:42;11.93;;;7.68;;
37641;SDS011;23486;51.956;5.888;2023-05-07T01:33:12;11.00;;;7.65;;
37641;SDS011;23486;51.956;5.888;2023-05-07T01:35:41;9.02;;;7.82;;
37641;SDS011;23486;51.956;5.888;2023-05-07T01:38:10;9.02;;;8.07;;
37641;SDS011;23486;51.956;5.888;2023-05-07T01:40:37;9.02;;;8.10;;
37641;SDS011;23486;51.956;5.888;2023-05-07T01:43:03;8.60;;;7.20;;
37641;SDS011;23486;51.956;5.888;2023-05-07T01:45:30;10.77;;;8.85;;
37641;SDS011;23486;51.956;5.888;2023-05-07T01:47:57;12.52;;;8.52;;
37641;SDS011;23486;51.956;5.888;2023-05-07T01:50:23;9.00;;;7.38;;
37641;SDS011;23486;51.956;5.888;2023-05-07T01:52:50;8.13;;;7.25;;
37641;SDS011;23486;51.956;5.888;2023-05-07T01:55:16;10.77;;;8.55;;
37641;SDS011;23486;51.956;5.888;2023-05-07T01:57:42;10.68;;;8.38;;
37641;SDS011;23486;51.956;5.888;2023-05-07T02:00:08;9.85;;;8.43;;
37641;SDS011;23486;51.956;5.888;2023-05-07T02:02:34;9.00;;;8.10;;
37641;SDS011;23486;51.956;5.888;2023-05-07T02:05:00;10.32;;;9.23;;
37641;SDS011;23486;51.956;5.888;2023-05-07T02:07:28;12.27;;;10.05;;
37641;SDS011;23486;51.956;5.888;2023-05-07T02:09:54;13.15;;;10.05;;
37641;SDS011;23486;51.956;5.888;2023-05-07T02:12:22;11.35;;;10.13;;
37641;SDS011;23486;51.956;5.888;2023-05-07T02:14:48;11.15;;;9.55;;
37641;SDS011;23486;51.956;5.888;2023-05-07T02:17:14;14.50;;;10.98;;
37641;SDS011;23486;51.956;5.888;2023-05-07T02:19:40;13.05;;;10.45;;
37641;SDS011;23486;51.956;5.888;2023-05-07T02:22:06;15.43;;;9.60;;
37641;SDS011;23486;51.956;5.888;2023-05-07T02:24:32;13.07;;;10.75;;
37641;SDS011;23486;51.956;5.888;2023-05-07T02:26:57;12.07;;;10.57;;
37641;SDS011;23486;51.956;5.888;2023-05-07T02:29:23;12.27;;;10.95;;
37641;SDS011;23486;51.956;5.888;2023-05-07T02:31:49;13.48;;;11.98;;
37641;SDS011;23486;51.956;5.888;2023-05-07T02:34:16;15.35;;;13.73;;
37641;SDS011;23486;51.956;5.888;2023-05-07T02:36:42;14.20;;;11.23;;
37641;SDS011;23486;51.956;5.888;2023-05-07T02:39:08;14.13;;;12.27;;
37641;SDS011;23486;51.956;5.888;2023-05-07T02:41:33;12.80;;;11.55;;
37641;SDS011;23486;51.956;5.888;2023-05-07T02:43:59;14.82;;;13.23;;
37641;SDS011;23486;51.956;5.888;2023-05-07T02:46:25;17.42;;;15.30;;
37641;SDS011;23486;51.956;5.888;2023-05-07T02:48:50;14.75;;;13.25;;
37641;SDS011;23486;51.956;5.888;2023-05-07T02:51:19;13.55;;;12.15;;
37641;SDS011;23486;51.956;5.888;2023-05-07T02:53:49;14.65;;;13.20;;
37641;SDS011;23486;51.956;5.888;2023-05-07T02:56:14;12.85;;;11.38;;
37641;SDS011;23486;51.956;5.888;2023-05-07T02:58:40;14.18;;;12.57;;
37641;SDS011;23486;51.956;5.888;2023-05-07T03:01:07;14.77;;;12.60;;
37641;SDS011;23486;51.956;5.888;2023-05-07T03:03:33;13.95;;;12.45;;
37641;SDS011;23486;51.956;5.888;2023-05-07T03:05:59;16.27;;;12.90;;
37641;SDS011;23486;51.956;5.888;2023-05-07T03:08:24;13.82;;;12.43;;
37641;SDS011;23486;51.956;5.888;2023-05-07T03:10:50;12.80;;;11.50;;
37641;SDS011;23486;51.956;5.888;2023-05-07T03:13:16;12.13;;;10.85;;
37641;SDS011;23486;51.956;5.888;2023-05-07T03:15:42;14.27;;;11.50;;
37641;SDS011;23486;51.956;5.888;2023-05-07T03:18:08;14.35;;;12.85;;
37641;SDS011;23486;51.956;5.888;2023-05-07T03:20:33;13.38;;;11.98;;
37641;SDS011;23486;51.956;5.888;2023-05-07T03:22:59;14.52;;;11.93;;
37641;SDS011;23486;51.956;5.888;2023-05-07T03:25:25;15.40;;;13.40;;
37641;SDS011;23486;51.956;5.888;2023-05-07T03:27:51;12.77;;;11.07;;
37641;SDS011;23486;51.956;5.888;2023-05-07T03:30:19;14.65;;;12.57;;
37641;SDS011;23486;51.956;5.888;2023-05-07T03:32:45;15.20;;;12.00;;
37641;SDS011;23486;51.956;5.888;2023-05-07T03:35:10;15.65;;;11.50;;
37641;SDS011;23486;51.956;5.888;2023-05-07T03:37:37;14.68;;;11.10;;
37641;SDS011;23486;51.956;5.888;2023-05-07T03:40:03;13.15;;;11.65;;
37641;SDS011;23486;51.956;5.888;2023-05-07T03:42:30;13.35;;;11.52;;
37641;SDS011;23486;51.956;5.888;2023-05-07T03:44:55;17.40;;;12.68;;
37641;SDS011;23486;51.956;5.888;2023-05-07T03:47:21;16.40;;;13.18;;
37641;SDS011;23486;51.956;5.888;2023-05-07T03:49:46;13.23;;;11.52;;
37641;SDS011;23486;51.956;5.888;2023-05-07T03:52:16;14.93;;;13.18;;
37641;SDS011;23486;51.956;5.888;2023-05-07T03:57:13;12.13;;;10.10;;
37641;SDS011;23486;51.956;5.888;2023-05-07T03:59:38;15.88;;;12.90;;
37641;SDS011;23486;51.956;5.888;2023-05-07T04:02:04;15.27;;;12.82;;
37641;SDS011;23486;51.956;5.888;2023-05-07T04:04:30;15.95;;;13.20;;
37641;SDS011;23486;51.956;5.888;2023-05-07T04:06:57;17.27;;;15.40;;
37641;SDS011;23486;51.956;5.888;2023-05-07T04:09:24;16.17;;;12.80;;
37641;SDS011;23486;51.956;5.888;2023-05-07T04:11:50;15.05;;;12.38;;
37641;SDS011;23486;51.956;5.888;2023-05-07T04:14:15;17.20;;;14.75;;
37641;SDS011;23486;51.956;5.888;2023-05-07T04:16:41;16.73;;;12.98;;
37641;SDS011;23486;51.956;5.888;2023-05-07T04:19:06;13.18;;;11.77;;
37641;SDS011;23486;51.956;5.888;2023-05-07T04:21:32;19.27;;;14.23;;
37641;SDS011;23486;51.956;5.888;2023-05-07T04:23:58;14.32;;;12.77;;
37641;SDS011;23486;51.956;5.888;2023-05-07T04:26:23;14.82;;;13.02;;
37641;SDS011;23486;51.956;5.888;2023-05-07T04:28:49;17.58;;;13.10;;
37641;SDS011;23486;51.956;5.888;2023-05-07T04:31:15;17.17;;;13.13;;
37641;SDS011;23486;51.956;5.888;2023-05-07T04:33:40;17.30;;;15.30;;
37641;SDS011;23486;51.956;5.888;2023-05-07T04:36:06;18.70;;;14.98;;
37641;SDS011;23486;51.956;5.888;2023-05-07T04:38:32;17.15;;;14.52;;
37641;SDS011;23486;51.956;5.888;2023-05-07T04:41:03;17.27;;;13.85;;
37641;SDS011;23486;51.956;5.888;2023-05-07T04:43:30;14.68;;;12.45;;
37641;SDS011;23486;51.956;5.888;2023-05-07T04:45:55;19.65;;;14.82;;
37641;SDS011;23486;51.956;5.888;2023-05-07T04:48:21;18.80;;;16.67;;
37641;SDS011;23486;51.956;5.888;2023-05-07T04:50:47;16.25;;;14.55;;
37641;SDS011;23486;51.956;5.888;2023-05-07T04:53:13;15.32;;;13.73;;
37641;SDS011;23486;51.956;5.888;2023-05-07T04:55:39;16.33;;;13.82;;
37641;SDS011;23486;51.956;5.888;2023-05-07T04:58:04;15.73;;;13.63;;
37641;SDS011;23486;51.956;5.888;2023-05-07T05:00:30;18.58;;;16.17;;
37641;SDS011;23486;51.956;5.888;2023-05-07T05:02:56;19.08;;;14.85;;
37641;SDS011;23486;51.956;5.888;2023-05-07T05:05:21;17.25;;;15.45;;
37641;SDS011;23486;51.956;5.888;2023-05-07T05:07:47;17.27;;;14.90;;
37641;SDS011;23486;51.956;5.888;2023-05-07T05:10:12;14.15;;;12.27;;
37641;SDS011;23486;51.956;5.888;2023-05-07T05:12:38;14.57;;;13.05;;
37641;SDS011;23486;51.956;5.888;2023-05-07T05:15:04;12.38;;;11.00;;
37641;SDS011;23486;51.956;5.888;2023-05-07T05:17:30;19.35;;;16.67;;
37641;SDS011;23486;51.956;5.888;2023-05-07T05:19:56;18.15;;;14.75;;
37641;SDS011;23486;51.956;5.888;2023-05-07T05:22:21;17.17;;;14.70;;
37641;SDS011;23486;51.956;5.888;2023-05-07T05:24:47;14.82;;;13.05;;
37641;SDS011;23486;51.956;5.888;2023-05-07T05:27:12;13.13;;;11.63;;
37641;SDS011;23486;51.956;5.888;2023-05-07T05:29:38;18.30;;;13.52;;
37641;SDS011;23486;51.956;5.888;2023-05-07T05:32:03;15.30;;;12.00;;
37641;SDS011;23486;51.956;5.888;2023-05-07T05:34:29;16.13;;;13.65;;
37641;SDS011;23486;51.956;5.888;2023-05-07T05:36:55;16.30;;;12.50;;
37641;SDS011;23486;51.956;5.888;2023-05-07T05:39:20;14.88;;;13.30;;
37641;SDS011;23486;51.956;5.888;2023-05-07T05:41:48;14.23;;;12.80;;
37641;SDS011;23486;51.956;5.888;2023-05-07T05:44:13;16.55;;;14.77;;
37641;SDS011;23486;51.956;5.888;2023-05-07T05:46:39;20.35;;;15.65;;
37641;SDS011;23486;51.956;5.888;2023-05-07T05:49:05;15.93;;;14.27;;
37641;SDS011;23486;51.956;5.888;2023-05-07T05:51:30;17.40;;;15.10;;
37641;SDS011;23486;51.956;5.888;2023-05-07T05:53:56;16.48;;;14.30;;
37641;SDS011;23486;51.956;5.888;2023-05-07T05:56:21;16.27;;;12.70;;
37641;SDS011;23486;51.956;5.888;2023-05-07T05:58:47;15.65;;;13.57;;
37641;SDS011;23486;51.956;5.888;2023-05-07T06:01:12;14.43;;;12.63;;
37641;SDS011;23486;51.956;5.888;2023-05-07T06:03:38;15.20;;;13.60;;
37641;SDS011;23486;51.956;5.888;2023-05-07T06:06:04;16.33;;;13.88;;
37641;SDS011;23486;51.956;5.888;2023-05-07T06:08:30;15.50;;;13.00;;
37641;SDS011;23486;51.956;5.888;2023-05-07T06:10:55;15.90;;;14.25;;
37641;SDS011;23486;51.956;5.888;2023-05-07T06:13:21;17.75;;;15.85;;
37641;SDS011;23486;51.956;5.888;2023-05-07T06:15:47;15.77;;;14.13;;
37641;SDS011;23486;51.956;5.888;2023-05-07T06:18:13;16.17;;;14.32;;
37641;SDS011;23486;51.956;5.888;2023-05-07T06:20:39;16.40;;;14.40;;
37641;SDS011;23486;51.956;5.888;2023-05-07T06:23:05;16.15;;;13.50;;
37641;SDS011;23486;51.956;5.888;2023-05-07T06:25:30;16.17;;;14.15;;
37641;SDS011;23486;51.956;5.888;2023-05-07T06:27:56;15.25;;;12.88;;
37641;SDS011;23486;51.956;5.888;2023-05-07T06:30:21;14.70;;;13.20;;
37641;SDS011;23486;51.956;5.888;2023-05-07T06:32:47;16.13;;;13.20;;
37641;SDS011;23486;51.956;5.888;2023-05-07T06:35:12;15.52;;;13.88;;
37641;SDS011;23486;51.956;5.888;2023-05-07T06:37:38;14.45;;;13.02;;
37641;SDS011;23486;51.956;5.888;2023-05-07T06:40:05;17.10;;;15.27;;
37641;SDS011;23486;51.956;5.888;2023-05-07T06:42:31;18.20;;;16.33;;
37641;SDS011;23486;51.956;5.888;2023-05-07T06:44:57;24.15;;;19.35;;
37641;SDS011;23486;51.956;5.888;2023-05-07T06:47:23;18.15;;;15.52;;
37641;SDS011;23486;51.956;5.888;2023-05-07T06:49:48;15.95;;;14.27;;
37641;SDS011;23486;51.956;5.888;2023-05-07T06:52:14;15.90;;;14.20;;
37641;SDS011;23486;51.956;5.888;2023-05-07T06:54:39;16.48;;;13.65;;
37641;SDS011;23486;51.956;5.888;2023-05-07T06:57:05;14.48;;;13.05;;
37641;SDS011;23486;51.956;5.888;2023-05-07T06:59:31;15.80;;;13.63;;
37641;SDS011;23486;51.956;5.888;2023-05-07T07:01:56;17.25;;;15.45;;
37641;SDS011;23486;51.956;5.888;2023-05-07T07:04:22;17.88;;;15.98;;
37641;SDS011;23486;51.956;5.888;2023-05-07T07:06:48;22.98;;;20.58;;
37641;SDS011;23486;51.956;5.888;2023-05-07T07:09:14;21.40;;;19.10;;
37641;SDS011;23486;51.956;5.888;2023-05-07T07:11:40;17.08;;;15.27;;
37641;SDS011;23486;51.956;5.888;2023-05-07T07:14:05;22.58;;;20.38;;
37641;SDS011;23486;51.956;5.888;2023-05-07T07:16:31;17.75;;;15.88;;
37641;SDS011;23486;51.956;5.888;2023-05-07T07:18:56;21.35;;;19.02;;
37641;SDS011;23486;51.956;5.888;2023-05-07T07:21:22;23.85;;;21.35;;
37641;SDS011;23486;51.956;5.888;2023-05-07T07:23:48;21.13;;;17.67;;
37641;SDS011;23486;51.956;5.888;2023-05-07T07:26:13;22.65;;;20.23;;
37641;SDS011;23486;51.956;5.888;2023-05-07T07:28:45;20.40;;;18.08;;
37641;SDS011;23486;51.956;5.888;2023-05-07T07:31:12;22.00;;;19.50;;
37641;SDS011;23486;51.956;5.888;2023-05-07T07:33:37;23.30;;;19.60;;
37641;SDS011;23486;51.956;5.888;2023-05-07T07:36:04;22.90;;;20.60;;
37641;SDS011;23486;51.956;5.888;2023-05-07T07:38:31;23.60;;;21.10;;
37641;SDS011;23486;51.956;5.888;2023-05-07T07:40:57;20.70;;;18.58;;
37641;SDS011;23486;51.956;5.888;2023-05-07T07:43:22;23.58;;;20.58;;
37641;SDS011;23486;51.956;5.888;2023-05-07T07:45:48;24.95;;;20.02;;
37641;SDS011;23486;51.956;5.888;2023-05-07T07:48:14;26.15;;;23.45;;
37641;SDS011;23486;51.956;5.888;2023-05-07T07:50:39;24.13;;;20.95;;
37641;SDS011;23486;51.956;5.888;2023-05-07T07:53:05;23.20;;;20.35;;
37641;SDS011;23486;51.956;5.888;2023-05-07T07:55:30;19.92;;;17.88;;
37641;SDS011;23486;51.956;5.888;2023-05-07T07:57:57;24.60;;;21.20;;
37641;SDS011;23486;51.956;5.888;2023-05-07T08:00:22;21.90;;;18.60;;
37641;SDS011;23486;51.956;5.888;2023-05-07T08:02:48;21.38;;;19.08;;
37641;SDS011;23486;51.956;5.888;2023-05-07T08:05:13;18.95;;;16.95;;
37641;SDS011;23486;51.956;5.888;2023-05-07T08:07:40;23.65;;;19.10;;
37641;SDS011;23486;51.956;5.888;2023-05-07T08:10:05;19.77;;;15.55;;
37641;SDS011;23486;51.956;5.888;2023-05-07T08:12:31;19.73;;;17.00;;
37641;SDS011;23486;51.956;5.888;2023-05-07T08:14:57;21.90;;;19.23;;
37641;SDS011;23486;51.956;5.888;2023-05-07T08:17:23;23.70;;;20.25;;
37641;SDS011;23486;51.956;5.888;2023-05-07T08:19:49;20.92;;;17.95;;
37641;SDS011;23486;51.956;5.888;2023-05-07T08:22:14;22.02;;;19.25;;
37641;SDS011;23486;51.956;5.888;2023-05-07T08:24:40;22.13;;;18.80;;
37641;SDS011;23486;51.956;5.888;2023-05-07T08:27:06;19.00;;;16.98;;
37641;SDS011;23486;51.956;5.888;2023-05-07T08:29:31;20.45;;;17.50;;
37641;SDS011;23486;51.956;5.888;2023-05-07T08:31:57;22.83;;;20.17;;
37641;SDS011;23486;51.956;5.888;2023-05-07T08:34:23;25.20;;;21.25;;
37641;SDS011;23486;51.956;5.888;2023-05-07T08:36:48;21.67;;;18.90;;
37641;SDS011;23486;51.956;5.888;2023-05-07T08:39:17;20.48;;;17.80;;
37641;SDS011;23486;51.956;5.888;2023-05-07T08:41:45;19.67;;;16.70;;
37641;SDS011;23486;51.956;5.888;2023-05-07T08:44:13;19.60;;;17.08;;
37641;SDS011;23486;51.956;5.888;2023-05-07T08:46:39;19.50;;;17.50;;
37641;SDS011;23486;51.956;5.888;2023-05-07T08:49:07;19.65;;;16.27;;
37641;SDS011;23486;51.956;5.888;2023-05-07T08:51:33;18.05;;;15.02;;
37641;SDS011;23486;51.956;5.888;2023-05-07T08:54:00;17.73;;;14.98;;
37641;SDS011;23486;51.956;5.888;2023-05-07T08:56:26;17.13;;;15.40;;
37641;SDS011;23486;51.956;5.888;2023-05-07T08:58:52;17.05;;;15.35;;
37641;SDS011;23486;51.956;5.888;2023-05-07T09:01:21;18.23;;;16.30;;
37641;SDS011;23486;51.956;5.888;2023-05-07T09:03:47;20.15;;;17.85;;
37641;SDS011;23486;51.956;5.888;2023-05-07T09:06:12;18.00;;;16.08;;
37641;SDS011;23486;51.956;5.888;2023-05-07T09:08:38;21.08;;;18.77;;
37641;SDS011;23486;51.956;5.888;2023-05-07T09:11:04;21.65;;;18.52;;
37641;SDS011;23486;51.956;5.888;2023-05-07T09:13:30;20.17;;;17.25;;
37641;SDS011;23486;51.956;5.888;2023-05-07T09:15:55;23.83;;;20.60;;
37641;SDS011;23486;51.956;5.888;2023-05-07T09:18:23;21.85;;;18.45;;
37641;SDS011;23486;51.956;5.888;2023-05-07T09:20:49;19.23;;;17.08;;
37641;SDS011;23486;51.956;5.888;2023-05-07T09:23:15;17.65;;;15.10;;
37641;SDS011;23486;51.956;5.888;2023-05-07T09:25:41;17.58;;;15.73;;
37641;SDS011;23486;51.956;5.888;2023-05-07T09:28:07;16.95;;;14.90;;
37641;SDS011;23486;51.956;5.888;2023-05-07T09:30:35;24.92;;;20.27;;
37641;SDS011;23486;51.956;5.888;2023-05-07T09:33:01;18.83;;;16.02;;
37641;SDS011;23486;51.956;5.888;2023-05-07T09:35:28;18.42;;;15.40;;
37641;SDS011;23486;51.956;5.888;2023-05-07T09:37:58;16.45;;;14.57;;
37641;SDS011;23486;51.956;5.888;2023-05-07T09:40:26;16.45;;;12.10;;
37641;SDS011;23486;51.956;5.888;2023-05-07T09:42:52;17.60;;;15.30;;
37641;SDS011;23486;51.956;5.888;2023-05-07T09:45:22;16.58;;;14.80;;
37641;SDS011;23486;51.956;5.888;2023-05-07T09:47:53;15.23;;;13.35;;
37641;SDS011;23486;51.956;5.888;2023-05-07T09:50:27;14.85;;;13.13;;
37641;SDS011;23486;51.956;5.888;2023-05-07T09:52:56;16.42;;;12.68;;
37641;SDS011;23486;51.956;5.888;2023-05-07T09:55:22;16.17;;;14.45;;
37641;SDS011;23486;51.956;5.888;2023-05-07T09:57:51;15.65;;;12.98;;
37641;SDS011;23486;51.956;5.888;2023-05-07T10:00:18;16.67;;;14.88;;
37641;SDS011;23486;51.956;5.888;2023-05-07T10:02:49;15.63;;;13.20;;
37641;SDS011;23486;51.956;5.888;2023-05-07T10:05:20;14.40;;;12.32;;
37641;SDS011;23486;51.956;5.888;2023-05-07T10:07:46;17.45;;;14.40;;
37641;SDS011;23486;51.956;5.888;2023-05-07T10:10:13;17.80;;;14.20;;
37641;SDS011;23486;51.956;5.888;2023-05-07T10:12:40;17.90;;;13.18;;
37641;SDS011;23486;51.956;5.888;2023-05-07T10:15:07;14.15;;;12.15;;
37641;SDS011;23486;51.956;5.888;2023-05-07T10:17:37;15.30;;;13.80;;
37641;SDS011;23486;51.956;5.888;2023-05-07T10:20:04;15.95;;;13.88;;
37641;SDS011;23486;51.956;5.888;2023-05-07T10:22:31;15.65;;;14.07;;
37641;SDS011;23486;51.956;5.888;2023-05-07T10:25:03;15.32;;;13.32;;
37641;SDS011;23486;51.956;5.888;2023-05-07T10:27:35;13.63;;;12.07;;
37641;SDS011;23486;51.956;5.888;2023-05-07T10:33:05;15.70;;;12.93;;
37641;SDS011;23486;51.956;5.888;2023-05-07T10:35:44;16.05;;;12.23;;
37641;SDS011;23486;51.956;5.888;2023-05-07T10:38:11;16.58;;;14.77;;
37641;SDS011;23486;51.956;5.888;2023-05-07T10:40:37;13.65;;;12.27;;
37641;SDS011;23486;51.956;5.888;2023-05-07T10:43:03;13.60;;;12.07;;
37641;SDS011;23486;51.956;5.888;2023-05-07T10:45:30;13.95;;;12.02;;
37641;SDS011;23486;51.956;5.888;2023-05-07T10:48:12;13.65;;;12.25;;
37641;SDS011;23486;51.956;5.888;2023-05-07T10:50:42;13.98;;;12.43;;
37641;SDS011;23486;51.956;5.888;2023-05-07T10:55:50;15.05;;;12.32;;
37641;SDS011;23486;51.956;5.888;2023-05-07T11:00:46;14.35;;;12.50;;
37641;SDS011;23486;51.956;5.888;2023-05-07T11:03:12;12.93;;;10.60;;
37641;SDS011;23486;51.956;5.888;2023-05-07T11:05:39;14.80;;;12.73;;
37641;SDS011;23486;51.956;5.888;2023-05-07T11:08:06;12.82;;;11.52;;
37641;SDS011;23486;51.956;5.888;2023-05-07T11:10:51;12.18;;;9.25;;
37641;SDS011;23486;51.956;5.888;2023-05-07T11:16:19;14.40;;;11.45;;
37641;SDS011;23486;51.956;5.888;2023-05-07T11:18:49;13.23;;;10.90;;
37641;SDS011;23486;51.956;5.888;2023-05-07T11:21:49;11.27;;;9.73;;
37641;SDS011;23486;51.956;5.888;2023-05-07T11:24:08;13.40;;;11.77;;
37641;SDS011;23486;51.956;5.888;2023-05-07T11:26:41;11.43;;;9.75;;
37641;SDS011;23486;51.956;5.888;2023-05-07T11:29:13;10.35;;;9.25;;
37641;SDS011;23486;51.956;5.888;2023-05-07T11:31:43;10.23;;;9.15;;
37641;SDS011;23486;51.956;5.888;2023-05-07T11:34:13;11.98;;;10.52;;
37641;SDS011;23486;51.956;5.888;2023-05-07T11:36:41;13.25;;;11.45;;
37641;SDS011;23486;51.956;5.888;2023-05-07T11:42:25;9.88;;;8.80;;
37641;SDS011;23486;51.956;5.888;2023-05-07T11:45:02;10.48;;;9.15;;
37641;SDS011;23486;51.956;5.888;2023-05-07T11:47:32;9.27;;;8.30;;
37641;SDS011;23486;51.956;5.888;2023-05-07T11:50:02;11.20;;;10.00;;
37641;SDS011;23486;51.956;5.888;2023-05-07T11:52:32;12.82;;;9.52;;
37641;SDS011;23486;51.956;5.888;2023-05-07T11:54:59;12.52;;;11.23;;
37641;SDS011;23486;51.956;5.888;2023-05-07T11:57:26;12.60;;;10.98;;
37641;SDS011;23486;51.956;5.888;2023-05-07T11:59:55;8.15;;;7.35;;
37641;SDS011;23486;51.956;5.888;2023-05-07T12:02:22;10.68;;;9.27;;
37641;SDS011;23486;51.956;5.888;2023-05-07T12:04:49;9.82;;;8.75;;
37641;SDS011;23486;51.956;5.888;2023-05-07T12:07:15;9.80;;;8.32;;
37641;SDS011;23486;51.956;5.888;2023-05-07T12:09:42;9.82;;;8.32;;
37641;SDS011;23486;51.956;5.888;2023-05-07T12:12:08;7.95;;;7.03;;
37641;SDS011;23486;51.956;5.888;2023-05-07T12:14:37;11.48;;;8.27;;
37641;SDS011;23486;51.956;5.888;2023-05-07T12:17:07;8.13;;;7.28;;
37641;SDS011;23486;51.956;5.888;2023-05-07T12:19:36;9.93;;;8.93;;
37641;SDS011;23486;51.956;5.888;2023-05-07T12:22:03;10.35;;;7.75;;
37641;SDS011;23486;51.956;5.888;2023-05-07T12:24:41;9.75;;;8.43;;
37641;SDS011;23486;51.956;5.888;2023-05-07T12:27:14;7.47;;;6.75;;
37641;SDS011;23486;51.956;5.888;2023-05-07T12:29:44;10.57;;;9.48;;
37641;SDS011;23486;51.956;5.888;2023-05-07T12:32:14;9.23;;;7.85;;
37641;SDS011;23486;51.956;5.888;2023-05-07T12:34:44;9.50;;;7.90;;
37641;SDS011;23486;51.956;5.888;2023-05-07T12:37:10;8.65;;;7.47;;
37641;SDS011;23486;51.956;5.888;2023-05-07T12:39:37;9.95;;;8.65;;
37641;SDS011;23486;51.956;5.888;2023-05-07T12:42:03;11.00;;;9.80;;
37641;SDS011;23486;51.956;5.888;2023-05-07T12:44:29;8.55;;;7.32;;
37641;SDS011;23486;51.956;5.888;2023-05-07T12:47:01;9.32;;;8.43;;
37641;SDS011;23486;51.956;5.888;2023-05-07T12:49:27;8.93;;;7.40;;
37641;SDS011;23486;51.956;5.888;2023-05-07T12:51:53;12.15;;;7.63;;
37641;SDS011;23486;51.956;5.888;2023-05-07T12:54:29;9.35;;;7.75;;
37641;SDS011;23486;51.956;5.888;2023-05-07T12:57:05;8.48;;;7.65;;
37641;SDS011;23486;51.956;5.888;2023-05-07T13:01:59;8.68;;;7.60;;
37641;SDS011;23486;51.956;5.888;2023-05-07T13:04:24;7.05;;;5.60;;
37641;SDS011;23486;51.956;5.888;2023-05-07T13:06:51;12.82;;;7.72;;
37641;SDS011;23486;51.956;5.888;2023-05-07T13:09:16;8.80;;;7.90;;
37641;SDS011;23486;51.956;5.888;2023-05-07T13:11:43;6.85;;;5.82;;
37641;SDS011;23486;51.956;5.888;2023-05-07T13:14:08;7.85;;;7.05;;
37641;SDS011;23486;51.956;5.888;2023-05-07T13:16:34;8.85;;;6.53;;
37641;SDS011;23486;51.956;5.888;2023-05-07T13:18:59;9.07;;;8.10;;
37641;SDS011;23486;51.956;5.888;2023-05-07T13:21:25;9.68;;;7.80;;
37641;SDS011;23486;51.956;5.888;2023-05-07T13:23:51;10.85;;;9.32;;
37641;SDS011;23486;51.956;5.888;2023-05-07T13:26:17;10.80;;;7.20;;
37641;SDS011;23486;51.956;5.888;2023-05-07T13:28:43;10.85;;;7.32;;
37641;SDS011;23486;51.956;5.888;2023-05-07T13:31:09;6.82;;;6.07;;
37641;SDS011;23486;51.956;5.888;2023-05-07T13:33:34;7.95;;;5.93;;
37641;SDS011;23486;51.956;5.888;2023-05-07T13:36:00;7.20;;;6.35;;
37641;SDS011;23486;51.956;5.888;2023-05-07T13:38:29;7.88;;;6.78;;
37641;SDS011;23486;51.956;5.888;2023-05-07T13:40:54;7.40;;;5.72;;
37641;SDS011;23486;51.956;5.888;2023-05-07T13:43:20;8.40;;;6.68;;
37641;SDS011;23486;51.956;5.888;2023-05-07T13:45:45;6.32;;;5.05;;
37641;SDS011;23486;51.956;5.888;2023-05-07T13:48:11;10.27;;;7.90;;
37641;SDS011;23486;51.956;5.888;2023-05-07T13:50:36;9.10;;;7.18;;
37641;SDS011;23486;51.956;5.888;2023-05-07T13:53:02;7.28;;;6.53;;
37641;SDS011;23486;51.956;5.888;2023-05-07T13:55:28;7.85;;;6.20;;
37641;SDS011;23486;51.956;5.888;2023-05-07T13:57:57;7.97;;;5.65;;
37641;SDS011;23486;51.956;5.888;2023-05-07T14:00:24;8.23;;;7.40;;
37641;SDS011;23486;51.956;5.888;2023-05-07T14:02:50;8.43;;;6.00;;
37641;SDS011;23486;51.956;5.888;2023-05-07T14:05:15;6.75;;;5.43;;
37641;SDS011;23486;51.956;5.888;2023-05-07T14:07:41;9.77;;;6.30;;
37641;SDS011;23486;51.956;5.888;2023-05-07T14:10:07;6.78;;;4.85;;
37641;SDS011;23486;51.956;5.888;2023-05-07T14:12:33;6.53;;;5.50;;
37641;SDS011;23486;51.956;5.888;2023-05-07T14:14:59;6.63;;;5.55;;
37641;SDS011;23486;51.956;5.888;2023-05-07T14:17:24;6.00;;;5.18;;
37641;SDS011;23486;51.956;5.888;2023-05-07T14:19:51;6.45;;;4.80;;
37641;SDS011;23486;51.956;5.888;2023-05-07T14:22:19;8.98;;;6.45;;
37641;SDS011;23486;51.956;5.888;2023-05-07T14:24:46;7.03;;;5.68;;
37641;SDS011;23486;51.956;5.888;2023-05-07T14:27:12;7.47;;;5.30;;
37641;SDS011;23486;51.956;5.888;2023-05-07T14:29:37;8.25;;;5.68;;
37641;SDS011;23486;51.956;5.888;2023-05-07T14:32:03;6.57;;;5.25;;
37641;SDS011;23486;51.956;5.888;2023-05-07T14:34:29;7.93;;;6.07;;
37641;SDS011;23486;51.956;5.888;2023-05-07T14:36:55;7.47;;;5.03;;
37641;SDS011;23486;51.956;5.888;2023-05-07T14:39:21;7.88;;;6.40;;
37641;SDS011;23486;51.956;5.888;2023-05-07T14:41:46;7.43;;;6.03;;
37641;SDS011;23486;51.956;5.888;2023-05-07T14:44:12;8.60;;;6.47;;
37641;SDS011;23486;51.956;5.888;2023-05-07T14:46:38;6.78;;;5.82;;